Time;durP1;ratioP1;P1;durP2;ratioP2;P2;SDS_P1;SDS_P2;PMS_P1;PMS_P2;Temp;Humidity;BMP_temperature;BMP_pressure;BME280_temperature;BME280_humidity;BME280_pressure;Samples;Min_cycle;Max_cycle;Signal;HPM_P1;HPM_P2
2022/10/19 00:02:21;;;;;;;6.72;3.08;;;;;;;10.61;100.00;101762.50;4912939;29;20637;-82
2022/10/19 00:04:47;;;;;;;4.53;2.72;;;;;;;10.54;100.00;101763.41;4914178;29;20091;-83
2022/10/19 00:07:14;;;;;;;7.93;2.75;;;;;;;10.53;100.00;101761.66;4928943;29;20044;-81
2022/10/19 00:09:42;;;;;;;7.18;3.30;;;;;;;10.64;100.00;101765.13;4918926;29;20040;-81
2022/10/19 00:12:11;;;;;;;7.68;2.83;;;;;;;10.74;100.00;101757.16;4912085;29;20040;-82
2022/10/19 00:14:38;;;;;;;3.75;2.10;;;;;;;10.61;100.00;101765.16;4928412;29;20091;-83
2022/10/19 00:17:05;;;;;;;6.63;2.88;;;;;;;10.57;100.00;101765.16;4925988;29;20040;-82
2022/10/19 00:19:31;;;;;;;3.78;2.17;;;;;;;10.59;100.00;101766.88;4918331;29;20036;-82
2022/10/19 00:21:58;;;;;;;7.45;2.65;;;;;;;10.71;100.00;101769.50;4890144;29;20071;-82
2022/10/19 00:24:24;;;;;;;7.57;2.60;;;;;;;10.65;100.00;101772.16;4911584;29;20494;-80
2022/10/19 00:26:51;;;;;;;5.38;2.65;;;;;;;10.66;100.00;101757.19;4914771;29;20421;-82
2022/10/19 00:29:18;;;;;;;4.95;2.10;;;;;;;10.61;100.00;101765.16;4892130;29;20490;-82
2022/10/19 00:31:44;;;;;;;2.78;1.95;;;;;;;10.53;100.00;101772.22;4894866;29;20099;-82
2022/10/19 00:34:11;;;;;;;6.07;3.03;;;;;;;10.55;100.00;101770.44;4899311;29;20097;-83
2022/10/19 00:36:39;;;;;;;4.63;2.42;;;;;;;10.56;100.00;101774.84;4917920;29;20048;-80
2022/10/19 00:39:09;;;;;;;4.63;2.00;;;;;;;10.51;100.00;101775.72;4907785;29;20051;-80
2022/10/19 00:41:36;;;;;;;7.15;2.33;;;;;;;10.48;100.00;101776.63;5024031;23;20055;-80
2022/10/19 00:44:06;;;;;;;4.45;2.40;;;;;;;10.59;100.00;101776.59;4957500;23;20043;-81
2022/10/19 00:46:36;;;;;;;5.25;2.28;;;;;;;10.54;100.00;101773.09;4923152;29;20043;-82
2022/10/19 00:49:09;;;;;;;8.98;3.45;;;;;;;10.51;100.00;101778.38;4936249;28;20051;-81
2022/10/19 00:51:40;;;;;;;3.67;2.50;;;;;;;10.50;100.00;101777.50;4948220;29;20114;-81
2022/10/19 00:54:07;;;;;;;6.55;2.35;;;;;;;10.47;100.00;101777.50;4935292;29;20044;-82
2022/10/19 00:56:35;;;;;;;7.95;2.72;;;;;;;10.54;100.00;101781.03;4926777;28;20079;-81
2022/10/19 00:59:03;;;;;;;4.93;2.10;;;;;;;10.53;100.00;101788.06;4946278;29;20497;-82
2022/10/19 01:01:31;;;;;;;5.50;2.63;;;;;;;10.53;100.00;101784.56;4934918;29;20040;-81
2022/10/19 01:03:59;;;;;;;7.30;2.53;;;;;;;10.61;100.00;101781.00;4919078;28;20102;-81
2022/10/19 01:06:26;;;;;;;2.45;1.73;;;;;;;10.71;100.00;101774.78;4951191;28;20039;-82
2022/10/19 01:08:53;;;;;;;4.05;1.80;;;;;;;10.62;100.00;101780.13;4946673;28;20047;-81
2022/10/19 01:11:29;;;;;;;6.00;2.13;;;;;;;10.62;100.00;101772.19;4937597;29;20043;-81
2022/10/19 01:14:25;;;;;;;4.78;1.88;;;;;;;10.65;100.00;101774.81;4933144;28;20461;-81
2022/10/19 01:17:05;;;;;;;3.65;1.90;;;;;;;10.58;100.00;101772.19;4953009;28;20498;-81
2022/10/19 01:19:43;;;;;;;4.45;1.90;;;;;;;10.77;100.00;101771.25;4926680;29;20134;-82
2022/10/19 01:22:43;;;;;;;8.02;1.90;;;;;;;10.69;100.00;101765.13;4927182;29;20101;-84
2022/10/19 01:25:21;;;;;;;4.78;1.80;;;;;;;10.67;100.00;101764.22;4928634;28;20046;-83
2022/10/19 01:27:58;;;;;;;3.15;1.95;;;;;;;10.64;100.00;101770.41;4921764;29;20139;-83
2022/10/19 01:30:42;;;;;;;8.63;2.25;;;;;;;10.62;100.00;101766.91;4937510;29;20094;-83
2022/10/19 01:33:24;;;;;;;4.82;1.65;;;;;;;10.63;100.00;101766.00;4935168;29;20050;-84
2022/10/19 01:36:20;;;;;;;4.20;1.85;;;;;;;10.52;100.00;101770.47;4926102;29;20048;-84
2022/10/19 01:38:54;;;;;;;2.65;1.50;;;;;;;10.43;100.00;101766.06;4939965;28;20050;-84
2022/10/19 01:41:25;;;;;;;;;;;;;;;10.37;100.00;101759.91;4941127;29;20040;-83
2022/10/19 01:44:18;;;;;;;7.35;1.85;;;;;;;10.33;100.00;101768.72;4929645;28;19923;-84
2022/10/19 01:46:52;;;;;;;5.22;2.22;;;;;;;10.34;100.00;101758.19;4935640;28;20452;-83
2022/10/19 01:49:42;;;;;;;5.30;1.30;;;;;;;10.25;100.00;101758.16;4909935;29;20046;-84
2022/10/19 01:52:11;;;;;;;3.08;1.38;;;;;;;10.29;100.00;101757.28;4943154;28;20089;-83
2022/10/19 01:54:41;;;;;;;1.92;1.13;;;;;;;10.34;100.00;101757.25;4923748;29;20087;-83
2022/10/19 01:57:10;;;;;;;2.92;1.25;;;;;;;10.27;100.00;101761.69;4929985;29;20063;-83
2022/10/19 01:59:38;;;;;;;3.40;1.30;;;;;;;10.23;100.00;101766.97;4959934;28;20659;-83
2022/10/19 02:02:06;;;;;;;2.85;1.27;;;;;;;10.23;100.00;101757.28;4936507;28;20035;-84
2022/10/19 02:04:33;;;;;;;2.88;1.55;;;;;;;10.33;100.00;101752.88;4941192;29;20390;-84
2022/10/19 02:07:01;;;;;;;4.65;1.38;;;;;;;10.33;100.00;101750.22;4943758;28;20040;-84
2022/10/19 02:09:27;;;;;;;3.65;1.27;;;;;;;10.28;100.00;101749.38;4930922;28;20047;-83
2022/10/19 02:11:57;;;;;;;4.00;1.60;;;;;;;10.36;100.00;101742.31;4961797;28;20050;-83
2022/10/19 02:14:31;;;;;;;5.15;1.40;;;;;;;10.27;100.00;101747.63;4927435;29;20049;-83
2022/10/19 02:17:02;;;;;;;3.65;1.25;;;;;;;10.31;100.00;101752.88;4949235;28;20042;-83
2022/10/19 02:19:29;;;;;;;6.72;1.30;;;;;;;10.25;100.00;101742.31;4946923;28;20043;-83
2022/10/19 02:21:56;;;;;;;2.72;1.08;;;;;;;10.24;100.00;101745.84;4940822;29;20048;-82
2022/10/19 02:24:23;;;;;;;3.83;1.00;;;;;;;10.36;100.00;101752.88;4939763;28;20040;-84
2022/10/19 02:26:50;;;;;;;2.40;1.17;;;;;;;10.30;100.00;101748.47;4971267;28;20050;-83
2022/10/19 02:29:17;;;;;;;3.45;1.40;;;;;;;10.29;100.00;101759.94;4945651;28;20051;-84
2022/10/19 02:31:44;;;;;;;3.53;1.00;;;;;;;10.29;100.00;101753.78;4915970;28;20451;-84
2022/10/19 02:34:11;;;;;;;4.40;1.50;;;;;;;10.45;100.00;101760.78;4948244;28;20039;-84
2022/10/19 02:36:38;;;;;;;4.03;1.30;;;;;;;10.31;100.00;101741.44;4945306;28;20380;-84
2022/10/19 02:39:05;;;;;;;4.13;1.20;;;;;;;10.32;100.00;101759.03;4928255;28;20051;-84
2022/10/19 02:41:39;;;;;;;3.72;1.00;;;;;;;10.33;100.00;101753.75;4943644;28;20042;-84
2022/10/19 02:44:16;;;;;;;1.67;1.00;;;;;;;10.24;100.00;101768.72;4943876;28;20075;-84
2022/10/19 02:46:45;;;;;;;4.60;2.13;;;;;;;10.18;100.00;101766.09;4961189;28;20043;-84
2022/10/19 02:49:12;;;;;;;3.28;1.27;;;;;;;10.26;100.00;101767.00;4953041;28;20047;-84
2022/10/19 02:51:54;;;;;;;2.33;0.98;;;;;;;10.23;100.00;101770.50;4925498;28;20039;-83
2022/10/19 02:54:22;;;;;;;3.65;1.38;;;;;;;10.11;100.00;101771.38;4932419;29;20040;-84
2022/10/19 02:56:50;;;;;;;4.03;1.65;;;;;;;10.12;100.00;101773.13;4922750;29;20043;-83
2022/10/19 02:59:17;;;;;;;2.45;1.10;;;;;;;10.01;100.00;101761.69;4938447;28;20053;-84
2022/10/19 03:01:44;;;;;;;3.88;1.55;;;;;;;10.19;100.00;101765.22;4915174;29;20047;-84
2022/10/19 03:04:10;;;;;;;3.67;1.27;;;;;;;10.23;100.00;101770.50;4920818;29;20050;-85
2022/10/19 03:06:37;;;;;;;2.25;1.00;;;;;;;10.11;100.00;101773.13;4928511;28;20086;-84
2022/10/19 03:09:04;;;;;;;3.20;0.70;;;;;;;10.04;100.00;101766.09;4954658;28;20105;-85
2022/10/19 03:11:30;;;;;;;3.05;1.02;;;;;;;10.11;100.00;101771.38;4955651;28;20042;-83
2022/10/19 03:13:57;;;;;;;3.28;1.00;;;;;;;10.08;100.00;101771.34;4925896;28;20038;-84
2022/10/19 03:16:24;;;;;;;5.60;1.27;;;;;;;10.17;100.00;101775.75;4936350;28;20098;-83
2022/10/19 03:18:51;;;;;;;4.47;1.20;;;;;;;10.33;100.00;101774.00;4955484;28;20047;-84
2022/10/19 03:21:17;;;;;;;2.80;1.40;;;;;;;10.32;100.00;101770.47;4955165;28;20047;-85
2022/10/19 03:23:44;;;;;;;1.80;1.33;;;;;;;10.25;100.00;101776.66;4932986;28;20460;-84
2022/10/19 03:26:14;;;;;;;5.03;1.08;;;;;;;10.19;100.00;101770.50;4954504;28;20806;-84
2022/10/19 03:28:40;;;;;;;2.78;1.05;;;;;;;10.10;100.00;101771.38;4933360;29;20056;-85
2022/10/19 03:31:08;;;;;;;2.40;0.90;;;;;;;10.12;100.00;101780.16;4917319;29;20047;-84
2022/10/19 03:33:34;;;;;;;2.78;1.00;;;;;;;10.08;100.00;101773.13;4935539;29;20049;-84
2022/10/19 03:36:31;;;;;;;1.80;1.10;;;;;;;10.07;100.00;101768.72;4919643;29;20102;-83
2022/10/19 03:39:04;;;;;;;2.53;1.20;;;;;;;10.10;100.00;101777.53;4936350;29;20126;-85
2022/10/19 03:41:33;;;;;;;1.75;0.82;;;;;;;10.13;100.00;101779.28;4930282;28;20458;-84
2022/10/19 03:44:00;;;;;;;3.42;1.25;;;;;;;10.22;100.00;101776.66;4943358;29;20043;-83
2022/10/19 03:46:26;;;;;;;4.35;1.70;;;;;;;10.23;100.00;101785.47;4926883;28;20050;-83
2022/10/19 03:48:53;;;;;;;5.47;1.20;;;;;;;10.27;100.00;101789.88;4935528;29;20051;-84
2022/10/19 03:51:25;;;;;;;6.88;1.73;;;;;;;10.12;100.00;101796.00;4945622;28;20043;-84
2022/10/19 03:53:57;;;;;;;3.83;1.27;;;;;;;10.15;100.00;101798.63;4951524;28;20050;-84
2022/10/19 03:56:25;;;;;;;3.63;0.98;;;;;;;10.21;100.00;101805.69;4930421;28;20515;-84
2022/10/19 03:58:53;;;;;;;2.75;1.35;;;;;;;10.09;100.00;101796.03;4970552;28;20046;-84
2022/10/19 04:01:26;;;;;;;3.13;1.08;;;;;;;10.06;100.00;101799.53;4942888;28;20050;-84
2022/10/19 04:03:54;;;;;;;4.80;1.00;;;;;;;10.20;100.00;101804.81;4941671;28;20039;-84
2022/10/19 04:06:24;;;;;;;3.03;1.00;;;;;;;10.21;100.00;101806.56;4916933;28;20089;-84
2022/10/19 04:08:51;;;;;;;3.15;0.80;;;;;;;10.13;100.00;101806.56;4934578;29;20046;-84
2022/10/19 04:11:21;;;;;;;2.67;1.15;;;;;;;10.08;100.00;101805.69;4917782;29;20039;-85
2022/10/19 04:13:49;;;;;;;1.77;0.90;;;;;;;10.19;100.00;101810.09;4935211;29;20055;-83
2022/10/19 04:16:17;;;;;;;4.32;2.15;;;;;;;10.16;100.00;101822.41;4919026;28;20043;-85
2022/10/19 04:18:43;;;;;;;2.40;1.30;;;;;;;10.21;100.00;101821.53;4943300;28;20090;-84
2022/10/19 04:21:27;;;;;;;5.25;1.65;;;;;;;10.11;100.00;101823.31;4932664;28;20119;-85
2022/10/19 04:24:06;;;;;;;4.63;1.48;;;;;;;10.03;100.00;101823.28;4932222;28;20043;-85
2022/10/19 04:26:36;;;;;;;3.97;1.30;;;;;;;10.03;100.00;101833.84;4915811;29;20138;-84
2022/10/19 04:29:03;;;;;;;3.28;1.42;;;;;;;10.15;100.00;101825.03;4925705;28;20050;-84
2022/10/19 04:31:30;;;;;;;4.60;1.20;;;;;;;10.20;100.00;101831.22;4966463;28;20482;-84
2022/10/19 04:33:56;;;;;;;3.42;1.35;;;;;;;10.10;100.00;101830.34;4927512;28;20469;-84
2022/10/19 04:36:23;;;;;;;4.30;1.10;;;;;;;10.05;100.00;101840.00;4945356;28;20583;-85
2022/10/19 04:38:51;;;;;;;4.30;1.15;;;;;;;10.03;100.00;101832.97;4942825;28;20043;-84
2022/10/19 04:41:19;;;;;;;1.33;1.00;;;;;;;10.02;100.00;101842.66;4940240;28;20043;-83
2022/10/19 04:43:47;;;;;;;2.45;1.08;;;;;;;10.04;100.00;101842.66;4919943;29;20046;-85
2022/10/19 04:46:18;;;;;;;2.17;1.08;;;;;;;10.06;100.00;101847.06;4947292;28;20043;-84
2022/10/19 04:48:46;;;;;;;1.85;1.00;;;;;;;10.05;100.00;101842.66;4954227;28;20047;-85
2022/10/19 04:51:13;;;;;;;2.60;1.17;;;;;;;10.05;100.00;101850.56;4954385;28;20109;-85
2022/10/19 04:53:41;;;;;;;5.70;1.42;;;;;;;10.23;100.00;101848.84;4954415;28;20567;-84
2022/10/19 04:56:11;;;;;;;2.55;1.20;;;;;;;10.19;100.00;101852.34;4925443;28;20485;-84
2022/10/19 04:58:38;;;;;;;4.20;1.10;;;;;;;10.09;100.00;101848.84;4932538;28;20043;-85
2022/10/19 05:01:13;;;;;;;4.65;0.93;;;;;;;10.04;100.00;101847.94;4944250;28;20035;-81
2022/10/19 05:03:40;;;;;;;2.83;1.10;;;;;;;10.02;100.00;101847.94;4930573;29;20493;-79
2022/10/19 05:06:08;;;;;;;4.18;1.35;;;;;;;10.22;100.00;101850.63;4933782;28;20078;-78
2022/10/19 05:08:36;;;;;;;1.75;1.25;;;;;;;10.12;100.00;101849.69;4926683;28;20045;-80
2022/10/19 05:11:11;;;;;;;3.53;1.30;;;;;;;10.06;100.00;101852.34;4959083;29;20046;-80
2022/10/19 05:13:38;;;;;;;4.22;1.20;;;;;;;10.11;100.00;101858.50;4932928;28;20463;-82
2022/10/19 05:16:06;;;;;;;4.13;1.30;;;;;;;10.18;100.00;101850.59;4960205;28;20410;-80
2022/10/19 05:18:33;;;;;;;3.60;1.63;;;;;;;10.10;100.00;101840.91;4943189;29;20043;-81
2022/10/19 05:21:09;;;;;;;3.65;1.67;;;;;;;10.11;100.00;101842.66;4940826;29;20122;-80
2022/10/19 05:23:36;;;;;;;3.55;1.25;;;;;;;10.15;100.00;101841.78;4929520;28;20072;-80
2022/10/19 05:26:08;;;;;;;2.95;1.20;;;;;;;10.21;100.00;101845.31;4950185;28;20091;-81
2022/10/19 05:28:35;;;;;;;2.97;1.40;;;;;;;10.09;100.00;101840.91;4956364;28;20082;-80
2022/10/19 05:31:14;;;;;;;4.03;1.63;;;;;;;10.11;100.00;101844.44;4944934;28;20038;-81
2022/10/19 05:33:41;;;;;;;3.03;0.90;;;;;;;10.09;100.00;101841.78;4962712;28;20071;-81
2022/10/19 05:36:24;;;;;;;3.70;1.08;;;;;;;10.07;100.00;101838.25;4945247;28;20042;-80
2022/10/19 05:38:53;;;;;;;5.05;1.20;;;;;;;10.01;100.00;101840.91;4947246;28;20047;-81
2022/10/19 05:41:21;;;;;;;4.60;1.55;;;;;;;10.08;100.00;101845.28;4927503;29;20086;-80
2022/10/19 05:43:52;;;;;;;3.75;1.20;;;;;;;10.11;100.00;101844.44;4939977;29;20035;-80
2022/10/19 05:46:19;;;;;;;3.13;1.00;;;;;;;10.01;100.00;101847.94;4937049;28;20077;-80
2022/10/19 05:48:46;;;;;;;3.58;1.20;;;;;;;9.97;100.00;101852.31;4949219;28;20043;-81
2022/10/19 05:51:16;;;;;;;3.15;1.35;;;;;;;9.99;100.00;101852.31;4930461;29;20040;-81
2022/10/19 05:53:43;;;;;;;2.58;1.13;;;;;;;10.00;100.00;101854.06;4946310;28;20046;-81
2022/10/19 05:56:17;;;;;;;4.10;1.83;;;;;;;10.10;100.00;101858.50;4968219;28;20084;-83
2022/10/19 05:58:44;;;;;;;4.15;1.42;;;;;;;10.02;100.00;101857.63;4950323;28;20118;-83
2022/10/19 06:01:11;;;;;;;5.35;1.60;;;;;;;10.07;100.00;101859.38;4948862;28;20046;-84
2022/10/19 06:03:38;;;;;;;2.88;1.05;;;;;;;10.08;100.00;101863.75;4942770;28;20046;-83
2022/10/19 06:06:07;;;;;;;3.60;1.15;;;;;;;10.09;100.00;101870.84;4944923;28;20074;-84
2022/10/19 06:08:34;;;;;;;2.13;1.00;;;;;;;10.15;100.00;101876.09;4925188;29;20111;-84
2022/10/19 06:11:06;;;;;;;2.25;0.90;;;;;;;10.19;100.00;101876.13;4943373;28;20052;-84
2022/10/19 06:13:33;;;;;;;5.07;1.23;;;;;;;10.16;100.00;101880.50;4934908;29;20060;-83
2022/10/19 06:16:00;;;;;;;4.32;1.60;;;;;;;10.20;100.00;101886.69;4944080;29;20054;-85
2022/10/19 06:18:28;;;;;;;3.72;1.58;;;;;;;10.28;100.00;101881.44;4925982;29;20084;-84
2022/10/19 06:20:55;;;;;;;3.65;1.17;;;;;;;10.13;100.00;101883.16;4924572;29;20043;-84
2022/10/19 06:23:21;;;;;;;2.60;1.10;;;;;;;10.26;100.00;101891.13;4925860;29;20051;-83
2022/10/19 06:25:48;;;;;;;4.70;1.00;;;;;;;10.19;100.00;101899.88;4942758;29;20071;-83
2022/10/19 06:28:15;;;;;;;7.03;1.52;;;;;;;10.20;100.00;101904.28;4927001;29;20058;-82
2022/10/19 06:30:42;;;;;;;7.88;1.85;;;;;;;10.20;100.00;101904.28;4925962;29;20058;-81
2022/10/19 06:33:09;;;;;;;5.47;1.40;;;;;;;10.18;100.00;101911.34;4924832;28;20461;-82
2022/10/19 06:35:37;;;;;;;5.40;1.67;;;;;;;10.22;100.00;101905.16;4929208;28;20129;-82
2022/10/19 06:38:04;;;;;;;4.05;1.20;;;;;;;10.24;100.00;101911.34;4942498;29;20603;-83
2022/10/19 06:40:30;;;;;;;6.07;1.67;;;;;;;10.25;100.00;101910.47;4926000;28;20398;-82
2022/10/19 06:42:57;;;;;;;4.80;1.20;;;;;;;10.35;100.00;101912.25;4941320;29;20063;-83
2022/10/19 06:45:24;;;;;;;3.90;1.20;;;;;;;10.30;100.00;101912.25;4925696;29;20472;-82
2022/10/19 06:47:51;;;;;;;3.85;1.85;;;;;;;10.27;100.00;101912.25;4937991;29;20151;-82
2022/10/19 06:50:19;;;;;;;5.03;1.20;;;;;;;10.21;100.00;101924.53;4938780;29;20131;-83
2022/10/19 06:52:46;;;;;;;6.47;1.10;;;;;;;10.18;100.00;101919.25;4936281;29;20063;-84
2022/10/19 06:55:13;;;;;;;4.55;1.58;;;;;;;10.16;100.00;101917.47;4934555;28;20047;-82
2022/10/19 06:57:40;;;;;;;4.07;1.30;;;;;;;10.22;100.00;101921.00;4927357;29;20043;-83
2022/10/19 07:00:07;;;;;;;2.90;1.10;;;;;;;10.38;100.00;101928.09;4920493;28;20051;-82
2022/10/19 07:02:34;;;;;;;3.67;2.22;;;;;;;10.27;100.00;101928.09;4939782;29;20051;-82
2022/10/19 07:05:01;;;;;;;2.58;1.55;;;;;;;10.35;100.00;101923.72;4940732;28;20522;-82
2022/10/19 07:07:33;;;;;;;3.13;1.95;;;;;;;10.32;100.00;101925.44;4954533;28;20047;-82
2022/10/19 07:10:01;;;;;;;3.95;1.83;;;;;;;10.36;100.00;101930.75;4920136;29;20043;-81
2022/10/19 07:12:28;;;;;;;2.55;1.20;;;;;;;10.35;100.00;101931.63;4926265;29;20047;-81
2022/10/19 07:14:55;;;;;;;5.05;2.05;;;;;;;10.52;100.00;101933.41;4922513;28;20078;-81
2022/10/19 07:17:22;;;;;;;5.93;1.35;;;;;;;10.48;100.00;101939.56;4922758;29;20079;-82
2022/10/19 07:19:48;;;;;;;4.55;1.60;;;;;;;10.50;100.00;101937.78;4922840;28;20089;-82
2022/10/19 07:22:15;;;;;;;2.50;1.35;;;;;;;10.54;100.00;101945.72;4924641;29;20493;-83
2022/10/19 07:24:51;;;;;;;3.80;1.58;;;;;;;10.53;100.00;101945.72;4926557;29;20083;-82
2022/10/19 07:27:17;;;;;;;3.72;1.25;;;;;;;10.61;100.00;101947.50;4940018;29;20129;-82
2022/10/19 07:29:45;;;;;;;3.22;1.40;;;;;;;10.62;100.00;101946.59;4952969;28;20043;-81
2022/10/19 07:32:12;;;;;;;5.35;1.40;;;;;;;10.67;100.00;101946.59;4938677;29;20094;-82
2022/10/19 07:34:38;;;;;;;3.53;1.10;;;;;;;10.69;100.00;101951.03;4926968;29;20047;-81
2022/10/19 07:37:05;;;;;;;4.30;2.05;;;;;;;10.81;100.00;101962.47;4933265;29;20099;-82
2022/10/19 07:39:32;;;;;;;2.72;1.40;;;;;;;10.86;100.00;101958.06;4939330;29;20444;-81
2022/10/19 07:41:58;;;;;;;3.92;1.40;;;;;;;11.00;100.00;101953.59;4922158;29;20461;-81
2022/10/19 07:44:25;;;;;;;3.58;1.55;;;;;;;11.06;100.00;101958.03;4921057;29;20051;-81
2022/10/19 07:46:52;;;;;;;5.07;1.55;;;;;;;11.05;100.00;101951.84;4928245;28;20038;-81
2022/10/19 07:49:19;;;;;;;4.32;1.50;;;;;;;11.15;100.00;101963.28;4938209;28;20583;-81
2022/10/19 07:51:46;;;;;;;3.15;1.50;;;;;;;11.27;100.00;101956.22;4920317;29;20047;-81
2022/10/19 07:54:12;;;;;;;1.83;1.55;;;;;;;11.36;100.00;101951.78;4951929;28;20412;-81
2022/10/19 07:56:40;;;;;;;5.53;1.83;;;;;;;11.44;100.00;101960.59;4918650;29;20050;-82
2022/10/19 07:59:06;;;;;;;3.20;1.20;;;;;;;11.47;100.00;101955.28;4920673;29;20047;-81
2022/10/19 08:01:40;;;;;;;4.28;1.42;;;;;;;11.50;100.00;101953.47;4936365;29;20047;-81
2022/10/19 08:04:07;;;;;;;10.70;2.25;;;;;;;11.62;100.00;101954.34;4921061;29;20546;-82
2022/10/19 08:06:54;;;;;;;5.43;1.98;;;;;;;11.70;100.00;101958.72;4925878;28;20125;-82
2022/10/19 08:09:20;;;;;;;5.60;2.25;;;;;;;11.84;100.00;101954.25;4923634;29;20047;-82
2022/10/19 08:12:07;;;;;;;3.20;1.48;;;;;;;11.84;100.00;101961.31;4938064;29;20134;-81
2022/10/19 08:14:40;;;;;;;3.57;1.20;;;;;;;11.93;100.00;101963.03;4935656;29;20043;-82
2022/10/19 08:17:10;;;;;;;2.05;1.30;;;;;;;12.02;100.00;101960.31;4946987;28;20944;-82
2022/10/19 08:19:41;;;;;;;2.60;1.50;;;;;;;11.97;100.00;101964.78;4918400;29;20043;-82
2022/10/19 08:22:09;;;;;;;5.43;1.98;;;;;;;11.96;100.00;101973.63;4933755;29;20058;-80
2022/10/19 08:24:36;;;;;;;3.92;1.60;;;;;;;12.03;100.00;101973.59;4919404;28;20051;-81
2022/10/19 08:27:04;;;;;;;2.38;1.40;;;;;;;11.95;100.00;101975.41;4934113;29;20051;-81
2022/10/19 08:29:31;;;;;;;4.00;1.55;;;;;;;12.01;100.00;101974.47;4918275;29;20135;-81
2022/10/19 08:31:58;;;;;;;4.70;1.40;;;;;;;11.97;100.00;101975.38;4935229;29;20039;-82
2022/10/19 08:34:24;;;;;;;3.20;1.40;;;;;;;12.02;100.00;101979.78;4936291;29;20057;-81
2022/10/19 08:36:51;;;;;;;3.95;1.50;;;;;;;12.15;100.00;101975.28;4935613;29;20043;-81
2022/10/19 08:39:18;;;;;;;5.63;1.27;;;;;;;12.22;100.00;101971.72;4939376;29;20592;-80
2022/10/19 08:41:56;;;;;;;4.97;1.42;;;;;;;12.23;100.00;101984.06;4926239;29;20054;-80
2022/10/19 08:44:41;;;;;;;2.92;1.40;;;;;;;12.31;100.00;101984.91;4950575;29;20039;-80
2022/10/19 08:47:31;;;;;;;4.13;1.40;;;;;;;12.21;100.00;101982.31;4961144;28;20051;-80
2022/10/19 08:49:58;;;;;;;4.13;1.60;;;;;;;12.22;100.00;101984.06;4934000;29;20071;-80
2022/10/19 08:52:33;;;;;;;3.88;1.42;;;;;;;12.36;100.00;101990.19;4964141;29;20039;-80
2022/10/19 08:55:23;;;;;;;4.65;1.35;;;;;;;12.18;100.00;101979.66;4965822;28;20047;-80
2022/10/19 08:58:23;;;;;;;3.72;1.55;;;;;;;12.61;100.00;101988.19;4931152;29;20050;-80
2022/10/19 09:01:06;;;;;;;4.00;1.92;;;;;;;12.60;100.00;101989.09;4963555;28;20067;-79
2022/10/19 09:06:59;;;;;;;3.15;1.48;;;;;;;12.51;100.00;101986.50;4955115;28;20056;-82
2022/10/19 09:09:27;;;;;;;;;;;;;;;12.38;100.00;101986.63;4938681;29;20055;-78
2022/10/19 09:11:59;;;;;;;2.53;1.13;;;;;;;12.55;100.00;101988.28;4924426;29;19930;-79
2022/10/19 09:14:56;;;;;;;4.88;1.70;;;;;;;12.92;100.00;101984.41;4938609;28;20057;-79
2022/10/19 09:17:26;;;;;;;4.57;2.13;;;;;;;13.43;100.00;101986.59;4930950;29;20416;-79
2022/10/19 09:19:53;;;;;;;4.43;1.30;;;;;;;13.62;96.27;101977.53;4955488;28;20166;-81
2022/10/19 09:22:24;;;;;;;3.05;1.30;;;;;;;13.87;98.29;101987.81;4939531;29;20567;-80
2022/10/19 09:24:59;;;;;;;4.30;1.83;;;;;;;13.94;100.00;101982.41;4957217;28;20047;-82
2022/10/19 09:27:32;;;;;;;4.60;1.67;;;;;;;13.66;95.68;101986.31;4924547;29;20058;-80
2022/10/19 09:30:14;;;;;;;2.08;1.17;;;;;;;13.50;94.79;102002.44;4941176;28;20091;-80
2022/10/19 09:32:41;;;;;;;2.13;0.98;;;;;;;13.14;98.43;102005.44;4947510;29;20039;-81
2022/10/19 09:35:30;;;;;;;4.05;1.10;;;;;;;13.06;100.00;102009.94;4925520;29;20095;-82
2022/10/19 09:37:57;;;;;;;2.75;1.20;;;;;;;12.96;95.43;102011.81;4936319;29;20054;-80
2022/10/19 09:40:26;;;;;;;3.28;1.27;;;;;;;13.15;91.87;102007.19;4921481;29;20098;-81
2022/10/19 09:42:57;;;;;;;3.28;1.15;;;;;;;13.23;92.61;102016.00;4920907;29;20051;-80
2022/10/19 09:45:30;;;;;;;3.42;1.20;;;;;;;13.27;94.93;102015.06;4952950;28;20085;-81
2022/10/19 09:47:57;;;;;;;3.60;1.10;;;;;;;13.06;91.73;102015.25;4938629;29;20043;-80
2022/10/19 09:50:41;;;;;;;3.42;0.98;;;;;;;12.83;93.30;102024.28;4937988;29;20048;-80
2022/10/19 09:53:16;;;;;;;3.55;1.55;;;;;;;12.92;95.52;102020.66;4920740;29;20031;-80
2022/10/19 09:55:44;;;;;;;2.30;1.20;;;;;;;12.78;95.96;102023.44;4936897;29;20044;-81
2022/10/19 09:58:14;;;;;;;2.67;1.20;;;;;;;12.82;93.48;102019.88;4954134;28;20050;-80
2022/10/19 10:00:43;;;;;;;3.20;1.40;;;;;;;12.59;93.91;102025.34;4937835;29;20051;-81
2022/10/19 10:03:42;;;;;;;1.45;1.20;;;;;;;12.44;97.37;102022.78;4942722;29;20035;-81
2022/10/19 10:06:12;;;;;;;3.00;1.30;;;;;;;12.67;100.00;102028.81;4946818;29;20456;-80
2022/10/19 10:08:46;;;;;;;1.98;1.20;;;;;;;13.14;100.00;102031.97;4928827;29;20087;-80
2022/10/19 10:11:37;;;;;;;2.78;1.10;;;;;;;13.80;93.75;102032.22;4945284;29;20051;-82
2022/10/19 10:14:24;;;;;;;2.25;1.00;;;;;;;14.34;84.98;102019.97;4908340;29;20579;-82
2022/10/19 10:17:16;;;;;;;3.25;1.33;;;;;;;14.52;85.87;102029.47;4937852;29;20043;-80
2022/10/19 10:19:58;;;;;;;3.00;0.82;;;;;;;14.24;78.67;102025.44;4926393;29;20059;-82
2022/10/19 10:22:29;;;;;;;2.00;0.80;;;;;;;13.71;78.10;102034.97;4930172;29;20044;-82
2022/10/19 10:24:57;;;;;;;2.25;0.85;;;;;;;13.55;79.07;102034.25;4929390;29;20075;-83
2022/10/19 10:27:32;;;;;;;2.72;1.00;;;;;;;13.63;79.84;102031.53;4910311;29;20044;-81
2022/10/19 10:30:05;;;;;;;1.23;0.88;;;;;;;13.59;82.14;102040.41;4958306;28;20043;-81
2022/10/19 10:32:36;;;;;;;2.30;0.82;;;;;;;13.66;80.83;102036.78;4949598;29;20059;-81
2022/10/19 10:35:06;;;;;;;3.03;0.63;;;;;;;13.80;82.44;102034.88;4941119;29;20053;-83
2022/10/19 10:37:38;;;;;;;1.67;0.68;;;;;;;13.95;75.25;102029.34;4928927;29;20039;-80
2022/10/19 10:40:18;;;;;;;2.35;0.95;;;;;;;14.08;77.18;102033.59;4949528;28;20043;-80
2022/10/19 10:42:52;;;;;;;4.65;2.70;;;;;;;14.46;74.78;102034.91;4967320;28;20131;-84
2022/10/19 10:45:25;;;;;;;1.90;1.60;;;;;;;14.71;72.47;102043.38;4914652;29;20071;-82
2022/10/19 10:47:52;;;;;;;3.83;1.40;;;;;;;14.95;69.86;102038.56;4945299;29;20110;-80
2022/10/19 10:50:23;;;;;;;4.13;2.67;;;;;;;15.23;70.31;102031.88;4947406;28;20568;-83
2022/10/19 10:53:01;;;;;;;2.00;0.82;;;;;;;14.94;71.68;102037.69;4927379;29;20445;-81
2022/10/19 10:55:30;;;;;;;1.35;0.80;;;;;;;14.82;70.31;102041.44;4950931;29;20063;-80
2022/10/19 10:58:10;;;;;;;1.42;0.73;;;;;;;14.31;69.80;102049.25;4939771;29;20070;-80
2022/10/19 11:00:39;;;;;;;1.45;0.80;;;;;;;14.21;69.80;102042.31;4954638;28;20733;-81
2022/10/19 11:03:13;;;;;;;1.67;0.85;;;;;;;14.13;72.91;102040.66;4938099;29;20039;-81
2022/10/19 11:05:48;;;;;;;2.10;1.70;;;;;;;13.97;72.43;102048.81;4938543;29;20047;-82
2022/10/19 11:08:35;;;;;;;1.67;0.80;;;;;;;13.52;71.34;102052.84;4920737;29;20040;-82
2022/10/19 11:11:21;;;;;;;1.63;0.80;;;;;;;13.39;72.73;102049.47;4946478;29;20039;-83
2022/10/19 11:14:00;;;;;;;1.42;0.80;;;;;;;13.26;73.74;102052.25;4923333;29;20046;-82
2022/10/19 11:16:33;;;;;;;1.85;0.65;;;;;;;13.49;73.15;102048.47;4947937;28;20496;-82
2022/10/19 11:19:23;;;;;;;0.95;0.80;;;;;;;13.71;72.44;102050.91;4938691;29;20482;-84
2022/10/19 11:21:58;;;;;;;0.77;0.77;;;;;;;13.98;73.23;102036.41;4918219;28;20073;-83
2022/10/19 11:24:54;;;;;;;1.08;0.60;;;;;;;14.18;65.45;102038.81;4941992;29;20047;-83
2022/10/19 11:27:29;;;;;;;0.65;0.60;;;;;;;14.34;65.82;102038.56;4950367;28;20123;-83
2022/10/19 11:30:01;;;;;;;1.08;0.88;;;;;;;14.53;66.18;102028.56;4945898;29;20082;-83
2022/10/19 11:32:59;;;;;;;1.30;0.70;;;;;;;14.63;65.38;102032.88;4922541;29;20050;-81
2022/10/19 11:35:56;;;;;;;1.30;0.80;;;;;;;14.93;61.47;102033.28;4954734;28;20436;-80
2022/10/19 11:38:34;;;;;;;0.93;0.60;;;;;;;14.76;63.11;102030.88;4941727;29;20040;-82
2022/10/19 11:41:16;;;;;;;1.45;1.13;;;;;;;14.57;63.50;102037.41;4939837;29;20531;-83
2022/10/19 11:43:53;;;;;;;1.48;0.95;;;;;;;14.39;61.84;102033.19;4918481;29;20059;-81